Time;durP1;ratioP1;P1;durP2;ratioP2;P2;SDS_P1;SDS_P2;PMS_P1;PMS_P2;Temp;Humidity;BMP_temperature;BMP_pressure;BME280_temperature;BME280_humidity;BME280_pressure;Samples;Min_cycle;Max_cycle;Signal;HPM_P1;HPM_P2
2023/04/02 00:02:30;;;;;;;5.40;2.40;;;3.10;99.90;;;;;;5013178;28;20471;-51
2023/04/02 00:05:30;;;;;;;4.33;1.90;;;3.10;99.90;;;;;;5011046;28;20460;-52
2023/04/02 00:07:59;;;;;;;3.27;1.93;;;3.10;99.90;;;;;;5008222;28;20572;-52
2023/04/02 00:10:31;;;;;;;8.20;2.07;;;3.10;99.90;;;;;;5012296;28;20491;-52
2023/04/02 00:13:13;;;;;;;3.53;3.23;;;3.10;99.90;;;;;;5013345;28;20555;-51
2023/04/02 00:15:42;;;;;;;3.00;2.00;;;3.10;99.90;;;;;;5013844;28;20864;-54
2023/04/02 00:18:12;;;;;;;7.20;2.07;;;3.10;99.90;;;;;;5004640;28;20444;-51
2023/04/02 00:20:43;;;;;;;4.33;1.90;;;3.20;99.90;;;;;;5012827;28;20491;-51
2023/04/02 00:23:12;;;;;;;2.43;1.93;;;3.10;99.90;;;;;;5012294;28;20448;-51
2023/04/02 00:25:44;;;;;;;3.33;1.93;;;3.10;99.90;;;;;;5011353;28;20488;-51
2023/04/02 00:28:13;;;;;;;5.50;2.23;;;3.10;99.90;;;;;;5009646;28;20510;-53
2023/04/02 00:30:47;;;;;;;3.70;1.97;;;3.10;99.90;;;;;;5011565;28;20505;-52
2023/04/02 00:33:17;;;;;;;4.30;1.97;;;3.10;99.90;;;;;;5009938;28;20446;-52
2023/04/02 00:35:43;;;;;;;4.50;2.37;;;3.10;99.90;;;;;;5011418;28;20452;-52
2023/04/02 00:38:19;;;;;;;2.10;1.90;;;3.10;99.90;;;;;;5012741;28;20605;-53
2023/04/02 00:40:48;;;;;;;4.10;2.20;;;3.10;99.90;;;;;;5011894;28;20467;-52
2023/04/02 00:43:16;;;;;;;2.40;2.10;;;3.10;99.90;;;;;;5011267;28;20558;-51
2023/04/02 00:45:49;;;;;;;7.73;2.10;;;3.10;99.90;;;;;;5011331;28;20503;-51
2023/04/02 00:48:27;;;;;;;6.30;2.27;;;3.10;99.90;;;;;;5003374;28;20458;-52
2023/04/02 00:50:55;;;;;;;2.07;1.70;;;3.10;99.90;;;;;;5008714;28;20480;-52
2023/04/02 00:53:25;;;;;;;8.90;2.53;;;3.20;99.90;;;;;;5011182;28;20514;-52
2023/04/02 00:55:53;;;;;;;2.93;1.93;;;3.10;99.90;;;;;;5009363;28;20519;-51
2023/04/02 00:58:26;;;;;;;4.00;1.80;;;3.10;99.90;;;;;;5011856;28;20487;-52
2023/04/02 01:00:53;;;;;;;3.83;1.97;;;3.10;99.90;;;;;;5014886;28;20485;-53
2023/04/02 01:03:33;;;;;;;3.00;1.90;;;3.10;99.90;;;;;;5010948;28;20460;-53
2023/04/02 01:06:09;;;;;;;2.40;1.77;;;3.10;99.90;;;;;;5007319;28;21018;-52
2023/04/02 01:08:55;;;;;;;3.10;2.07;;;3.10;99.90;;;;;;5005883;28;20975;-52
2023/04/02 01:11:44;;;;;;;2.73;1.80;;;3.10;99.90;;;;;;5009974;22;20556;-54
2023/04/02 01:14:18;;;;;;;2.37;2.13;;;3.10;99.90;;;;;;4984369;28;20464;-53
2023/04/02 01:16:52;;;;;;;6.13;2.70;;;3.10;99.90;;;;;;4995524;28;20511;-53
2023/04/02 01:19:51;;;;;;;4.90;2.60;;;3.10;99.90;;;;;;4997424;28;20444;-52
2023/04/02 01:22:22;;;;;;;6.63;2.50;;;3.10;99.90;;;;;;4968915;28;20471;-53
2023/04/02 01:24:49;;;;;;;2.53;2.20;;;3.20;99.90;;;;;;4966346;28;20450;-53
2023/04/02 01:27:21;;;;;;;3.30;1.80;;;3.10;99.90;;;;;;4971654;28;20566;-53
2023/04/02 01:29:54;;;;;;;6.00;2.33;;;3.10;99.90;;;;;;4970912;28;20533;-53
2023/04/02 01:32:22;;;;;;;4.20;1.87;;;3.10;99.90;;;;;;4970686;28;20838;-53
2023/04/02 01:34:51;;;;;;;4.30;2.00;;;3.10;99.90;;;;;;4974117;28;20516;-53
2023/04/02 01:37:33;;;;;;;6.30;1.70;;;3.10;99.90;;;;;;4966196;28;20486;-52
2023/04/02 01:40:10;;;;;;;5.13;2.23;;;3.10;99.90;;;;;;4973040;28;21031;-52
2023/04/02 01:42:42;;;;;;;3.80;2.20;;;3.10;99.90;;;;;;4959578;28;20464;-53
2023/04/02 01:45:12;;;;;;;1.90;1.80;;;3.10;99.90;;;;;;4972513;28;20853;-53
2023/04/02 01:47:40;;;;;;;3.73;1.73;;;3.10;99.90;;;;;;4977207;28;20533;-53
2023/04/02 01:50:24;;;;;;;4.67;1.97;;;3.10;99.90;;;;;;4975890;28;20493;-51
2023/04/02 01:52:55;;;;;;;2.00;1.63;;;3.10;99.90;;;;;;4979894;28;20521;-49
2023/04/02 01:55:30;;;;;;;2.00;1.50;;;3.00;27.20;;;;;;4977715;28;20537;-49
2023/04/02 01:57:58;;;;;;;3.33;2.03;;;3.10;78.70;;;;;;4961712;28;20450;-50
2023/04/02 02:00:29;;;;;;;4.37;2.50;;;3.10;99.90;;;;;;4973109;28;20910;-49
2023/04/02 02:02:56;;;;;;;4.97;1.90;;;3.10;99.90;;;;;;4969707;28;20466;-49
2023/04/02 02:05:23;;;;;;;2.20;1.73;;;3.10;99.90;;;;;;4975008;28;20882;-49
2023/04/02 02:07:51;;;;;;;2.23;2.03;;;3.10;99.90;;;;;;4977835;28;21216;-50
2023/04/02 02:10:23;;;;;;;6.30;2.10;;;3.10;99.90;;;;;;4976450;28;20532;-48
2023/04/02 02:12:50;;;;;;;2.83;1.53;;;3.10;23.10;;;;;;4978007;28;20500;-49
2023/04/02 02:15:18;;;;;;;4.90;2.20;;;3.10;99.90;;;;;;4973812;28;20517;-49
2023/04/02 02:17:47;;;;;;;2.63;1.50;;;3.10;99.90;;;;;;4978209;28;20892;-49
2023/04/02 02:20:14;;;;;;;2.20;1.90;;;3.10;99.90;;;;;;4974674;28;20490;-49
2023/04/02 02:22:44;;;;;;;5.43;2.37;;;3.10;99.90;;;;;;4976948;28;20461;-49
2023/04/02 02:25:15;;;;;;;2.10;1.90;;;3.10;95.00;;;;;;4975339;28;20500;-49
2023/04/02 02:27:56;;;;;;;7.20;2.10;;;3.10;97.30;;;;;;4980448;28;20494;-49
2023/04/02 02:30:27;;;;;;;2.30;1.80;;;3.10;99.90;;;;;;4974487;28;20465;-49
2023/04/02 02:33:00;;;;;;;4.67;2.20;;;3.10;71.70;;;;;;4980960;28;20552;-49
2023/04/02 02:35:30;;;;;;;2.07;1.80;;;3.10;96.00;;;;;;4974862;28;20513;-49
2023/04/02 02:38:05;;;;;;;2.13;1.80;;;3.00;29.80;;;;;;4979577;28;20469;-49
2023/04/02 02:40:41;;;;;;;2.90;2.13;;;3.10;99.90;;;;;;4973349;28;20476;-49
2023/04/02 02:43:12;;;;;;;3.07;2.03;;;3.10;99.90;;;;;;4972962;28;20528;-49
2023/04/02 02:45:42;;;;;;;6.43;2.13;;;3.10;99.90;;;;;;4970135;28;20898;-49
2023/04/02 02:48:16;;;;;;;6.83;2.40;;;3.10;99.90;;;;;;4971789;28;21054;-49
2023/04/02 02:50:44;;;;;;;3.00;2.10;;;3.00;22.90;;;;;;4972008;28;20497;-49
2023/04/02 02:53:17;;;;;;;5.03;1.80;;;3.10;99.90;;;;;;4976471;28;20476;-49
2023/04/02 02:55:44;;;;;;;2.20;1.70;;;3.10;99.90;;;;;;4970123;28;20490;-49
2023/04/02 02:58:15;;;;;;;6.47;2.53;;;3.10;90.30;;;;;;4971635;28;20531;-49
2023/04/02 03:00:43;;;;;;;1.83;1.60;;;3.10;99.90;;;;;;4978070;28;20492;-48
2023/04/02 03:03:16;;;;;;;1.77;1.60;;;3.10;99.90;;;;;;4979606;28;20481;-49
2023/04/02 03:05:43;;;;;;;3.83;1.90;;;3.10;99.90;;;;;;4976776;28;20574;-48
2023/04/02 03:08:18;;;;;;;2.37;2.10;;;3.10;75.80;;;;;;4977680;28;20532;-49
2023/04/02 03:10:53;;;;;;;2.30;1.70;;;3.00;27.20;;;;;;4976794;28;20496;-49
2023/04/02 03:13:23;;;;;;;6.27;2.13;;;3.10;20.30;;;;;;4979246;28;20465;-49
2023/04/02 03:15:58;;;;;;;4.47;2.13;;;3.10;20.40;;;;;;4969421;28;20524;-49
2023/04/02 03:18:34;;;;;;;4.63;1.80;;;3.10;89.10;;;;;;4975190;28;20448;-49
2023/04/02 03:21:09;;;;;;;2.83;1.90;;;3.10;20.40;;;;;;4972311;28;20488;-49
2023/04/02 03:23:40;;;;;;;4.87;2.07;;;3.10;20.40;;;;;;4973164;28;20885;-49
2023/04/02 03:26:11;;;;;;;3.87;2.00;;;3.10;20.90;;;;;;4974095;28;20470;-49
2023/04/02 03:28:43;;;;;;;6.13;2.17;;;3.10;79.30;;;;;;4968217;28;21012;-48
2023/04/02 03:31:15;;;;;;;5.90;3.17;;;3.10;90.60;;;;;;4975628;28;20549;-49
2023/04/02 03:33:48;;;;;;;5.90;1.80;;;3.10;99.90;;;;;;4975021;28;20492;-49
2023/04/02 03:36:19;;;;;;;3.07;2.03;;;3.10;99.90;;;;;;4972573;28;20466;-49
2023/04/02 03:38:51;;;;;;;4.13;2.40;;;3.10;75.90;;;;;;4970326;28;20462;-49
2023/04/02 03:41:31;;;;;;;4.17;2.00;;;3.10;23.80;;;;;;4966530;28;21265;-49
2023/04/02 03:44:01;;;;;;;3.03;1.80;;;3.10;25.70;;;;;;4969106;28;20976;-50
2023/04/02 03:46:33;;;;;;;6.23;1.87;;;3.10;22.00;;;;;;4974562;28;20528;-49
2023/04/02 03:49:07;;;;;;;7.57;1.97;;;3.10;27.00;;;;;;4971951;28;20490;-49
2023/04/02 03:51:37;;;;;;;7.70;1.73;;;3.10;26.50;;;;;;4968923;28;20873;-50
2023/04/02 03:54:04;;;;;;;10.13;1.60;;;3.10;34.30;;;;;;4971961;28;20469;-49
2023/04/02 03:56:38;;;;;;;2.37;1.83;;;3.10;26.50;;;;;;4977952;28;20968;-49
2023/04/02 03:59:13;;;;;;;6.30;1.67;;;3.10;21.20;;;;;;4969894;28;20873;-49
2023/04/02 04:01:45;;;;;;;4.20;2.13;;;3.10;25.70;;;;;;4967169;28;20974;-49
2023/04/02 04:04:17;;;;;;;3.80;1.50;;;3.10;36.40;;;;;;4979058;28;20492;-50
2023/04/02 04:06:46;;;;;;;2.40;1.73;;;3.10;27.80;;;;;;4972489;28;20473;-49
2023/04/02 04:09:20;;;;;;;3.57;1.73;;;3.10;22.60;;;;;;4979290;28;20481;-49
2023/04/02 04:11:50;;;;;;;4.73;1.77;;;3.10;22.10;;;;;;4975712;28;20502;-49
2023/04/02 04:14:19;;;;;;;2.17;1.87;;;3.10;23.00;;;;;;4974189;28;20967;-49
2023/04/02 04:16:52;;;;;;;3.60;1.60;;;3.10;23.00;;;;;;4977917;28;21004;-49
2023/04/02 04:19:28;;;;;;;3.17;2.03;;;3.10;87.20;;;;;;4970965;28;21031;-48
2023/04/02 04:22:09;;;;;;;3.93;2.00;;;3.10;20.10;;;;;;4968556;28;20486;-48
2023/04/02 04:24:38;;;;;;;3.03;1.80;;;3.10;23.40;;;;;;4974303;28;20462;-49
2023/04/02 04:27:09;;;;;;;4.23;1.50;;;3.10;39.30;;;;;;4975450;28;20490;-49
2023/04/02 04:29:44;;;;;;;3.23;1.70;;;3.10;30.30;;;;;;4969793;28;20961;-48
2023/04/02 04:32:26;;;;;;;2.67;1.67;;;3.10;26.10;;;;;;4970881;28;20481;-48
2023/04/02 04:34:59;;;;;;;1.33;1.27;;;3.10;26.10;;;;;;4973265;28;20474;-48
2023/04/02 04:37:32;;;;;;;2.80;1.60;;;3.10;22.50;;;;;;4975530;28;20968;-49
2023/04/02 04:40:04;;;;;;;2.70;1.80;;;3.20;21.10;;;;;;4963729;28;20920;-48
2023/04/02 04:42:35;;;;;;;4.03;2.17;;;3.10;24.10;;;;;;4971897;28;20466;-49
2023/04/02 04:45:09;;;;;;;3.70;1.60;;;3.10;27.00;;;;;;4976362;28;20470;-49
2023/04/02 04:47:39;;;;;;;3.03;1.53;;;3.20;26.50;;;;;;4966373;28;20477;-49
2023/04/02 04:50:14;;;;;;;3.87;1.83;;;3.20;31.50;;;;;;4978220;28;20527;-49
2023/04/02 04:52:43;;;;;;;1.93;1.70;;;3.20;26.70;;;;;;4968252;28;20560;-49
2023/04/02 04:55:27;;;;;;;3.30;1.63;;;3.20;20.80;;;;;;4978663;28;20811;-49
2023/04/02 04:57:58;;;;;;;2.00;1.27;;;3.20;33.30;;;;;;4970221;28;20512;-49
2023/04/02 05:00:28;;;;;;;2.50;1.47;;;3.20;33.90;;;;;;4976025;28;20560;-49
2023/04/02 05:03:02;;;;;;;16.00;2.20;;;3.20;32.50;;;;;;4980451;28;20462;-49
2023/04/02 05:05:36;;;;;;;3.27;1.97;;;3.20;35.10;;;;;;4972695;28;20474;-48
2023/04/02 05:08:10;;;;;;;8.40;2.87;;;3.20;30.60;;;;;;4975215;28;20897;-49
2023/04/02 05:10:42;;;;;;;3.70;1.97;;;3.20;31.80;;;;;;4979062;28;20498;-49
2023/04/02 05:13:15;;;;;;;7.60;2.10;;;3.20;31.40;;;;;;4968484;28;20525;-48
2023/04/02 05:15:48;;;;;;;3.17;1.80;;;3.20;34.30;;;;;;4978157;28;20580;-49
2023/04/02 05:18:23;;;;;;;2.30;1.43;;;3.20;34.90;;;;;;4975716;28;20442;-49
2023/04/02 05:20:56;;;;;;;4.20;2.27;;;3.20;33.70;;;;;;4980569;28;20999;-49
2023/04/02 05:23:26;;;;;;;5.83;3.13;;;3.20;35.80;;;;;;4974230;28;20556;-50
2023/04/02 05:25:59;;;;;;;9.43;3.43;;;3.20;38.20;;;;;;4967188;28;20451;-49
2023/04/02 05:28:31;;;;;;;7.97;2.83;;;3.20;39.60;;;;;;4972706;28;20490;-49
2023/04/02 05:31:03;;;;;;;6.07;3.03;;;3.30;55.10;;;;;;4969545;28;20490;-49
2023/04/02 05:33:32;;;;;;;1.83;1.60;;;3.20;54.40;;;;;;4973757;28;20987;-49
2023/04/02 05:36:03;;;;;;;2.70;1.60;;;3.30;66.00;;;;;;4975701;28;20505;-48
2023/04/02 05:38:32;;;;;;;3.60;1.40;;;3.30;69.10;;;;;;4972775;28;20984;-48
2023/04/02 05:41:02;;;;;;;1.40;1.30;;;3.30;65.30;;;;;;4973479;28;20550;-49
2023/04/02 05:43:32;;;;;;;5.93;1.63;;;3.30;77.30;;;;;;4978802;28;20544;-50
2023/04/02 05:46:03;;;;;;;2.93;1.67;;;3.30;68.10;;;;;;4970193;28;20466;-49
2023/04/02 05:48:35;;;;;;;4.23;1.67;;;3.40;72.30;;;;;;4971014;28;20498;-49
2023/04/02 05:51:05;;;;;;;1.90;1.43;;;3.40;71.60;;;;;;4972916;28;20572;-49
2023/04/02 05:53:35;;;;;;;5.80;2.00;;;3.40;73.30;;;;;;4972091;28;20846;-49
2023/04/02 05:56:07;;;;;;;3.33;1.77;;;3.40;68.30;;;;;;4972333;28;21161;-49
2023/04/02 05:58:40;;;;;;;3.67;1.73;;;3.50;71.70;;;;;;4972020;28;20443;-49
2023/04/02 06:01:32;;;;;;;5.37;2.30;;;3.50;83.60;;;;;;4971364;28;20714;-49
2023/04/02 06:04:05;;;;;;;3.47;1.60;;;3.50;70.50;;;;;;4969543;28;20466;-48
2023/04/02 06:06:51;;;;;;;3.60;1.80;;;3.60;69.50;;;;;;4978937;28;20541;-49
2023/04/02 06:09:25;;;;;;;1.77;1.30;;;3.60;67.70;;;;;;4975200;28;20496;-49
2023/04/02 06:12:00;;;;;;;3.13;1.60;;;3.60;77.20;;;;;;4973528;28;21030;-48
2023/04/02 06:14:26;;;;;;;5.10;1.87;;;3.60;68.30;;;;;;4973184;28;20442;-50
2023/04/02 06:16:53;;;;;;;2.70;1.70;;;3.60;82.70;;;;;;4969530;28;20524;-49
2023/04/02 06:19:25;;;;;;;3.00;1.87;;;3.70;74.80;;;;;;4971694;28;20536;-49
2023/04/02 06:21:58;;;;;;;3.93;1.70;;;3.90;72.90;;;;;;4972809;28;20501;-49
2023/04/02 06:24:27;;;;;;;2.33;1.50;;;4.40;86.60;;;;;;4971200;28;20462;-49
2023/04/02 06:26:59;;;;;;;2.70;1.57;;;4.70;99.90;;;;;;4977744;28;20473;-49
2023/04/02 06:29:32;;;;;;;2.70;1.90;;;4.60;99.90;;;;;;4970834;28;20516;-53
2023/04/02 06:32:01;;;;;;;4.73;1.93;;;4.40;21.90;;;;;;4970854;28;20486;-53
2023/04/02 06:34:29;;;;;;;3.07;2.47;;;4.30;87.60;;;;;;4976211;28;20469;-53
2023/04/02 06:36:59;;;;;;;2.30;2.10;;;4.20;99.90;;;;;;4972473;28;20514;-52
2023/04/02 06:39:27;;;;;;;8.07;2.40;;;4.20;99.90;;;;;;4974378;28;20540;-54
2023/04/02 06:41:59;;;;;;;5.20;2.20;;;4.20;86.30;;;;;;4984326;28;20536;-52
2023/04/02 06:44:30;;;;;;;7.17;2.00;;;4.20;99.90;;;;;;4979606;28;20466;-53
2023/04/02 06:46:59;;;;;;;2.63;2.00;;;4.20;93.80;;;;;;4982249;28;20882;-52
2023/04/02 06:49:33;;;;;;;3.10;2.53;;;4.20;99.90;;;;;;4980269;28;20482;-53
2023/04/02 06:52:03;;;;;;;4.00;2.30;;;4.20;21.40;;;;;;4972488;28;21033;-54
2023/04/02 06:54:30;;;;;;;1.83;1.63;;;4.30;99.90;;;;;;4977886;28;20960;-52
2023/04/02 06:56:56;;;;;;;3.90;2.00;;;4.40;29.00;;;;;;4977368;28;21035;-53
2023/04/02 06:59:23;;;;;;;3.83;3.33;;;4.40;30.80;;;;;;4974783;28;20489;-53
2023/04/02 07:01:54;;;;;;;1.93;1.83;;;4.50;56.40;;;;;;4973397;28;20541;-53
2023/04/02 07:04:21;;;;;;;6.77;3.20;;;4.60;73.40;;;;;;4978861;28;20552;-53
2023/04/02 07:06:48;;;;;;;4.03;2.07;;;4.60;73.00;;;;;;4971991;28;22298;-52
2023/04/02 07:09:17;;;;;;;3.03;1.90;;;4.70;76.20;;;;;;4973965;28;20927;-54
2023/04/02 07:11:44;;;;;;;2.30;1.80;;;4.80;66.60;;;;;;5033255;23;20790;-52
2023/04/02 07:14:12;;;;;;;3.50;3.20;;;4.80;74.30;;;;;;5014352;28;20463;-52
2023/04/02 07:16:39;;;;;;;4.60;2.00;;;4.70;91.70;;;;;;5014614;28;20469;-52
2023/04/02 07:19:06;;;;;;;4.13;2.30;;;4.80;67.10;;;;;;5017740;28;20436;-52
2023/04/02 07:21:33;;;;;;;1.93;1.83;;;4.80;81.00;;;;;;5014942;28;20487;-51
2023/04/02 07:24:00;;;;;;;2.23;1.93;;;4.80;76.70;;;;;;5012503;28;20460;-50
2023/04/02 07:26:28;;;;;;;4.20;1.40;;;4.70;86.30;;;;;;5014830;28;20730;-50
2023/04/02 07:28:55;;;;;;;1.90;1.37;;;4.80;77.70;;;;;;5012208;28;20488;-50
2023/04/02 07:31:24;;;;;;;2.60;2.07;;;4.70;85.20;;;;;;5011799;28;20495;-52
2023/04/02 07:33:52;;;;;;;6.00;1.83;;;4.60;85.00;;;;;;5011100;28;20575;-51
2023/04/02 07:36:21;;;;;;;2.97;1.37;;;4.80;88.20;;;;;;5012447;28;20463;-51
2023/04/02 07:38:48;;;;;;;3.93;1.83;;;4.80;89.40;;;;;;5015117;28;21013;-51
2023/04/02 07:41:16;;;;;;;5.57;1.63;;;4.90;90.20;;;;;;5018113;28;21059;-51
2023/04/02 07:43:44;;;;;;;1.47;1.23;;;4.90;91.70;;;;;;5022756;28;20464;-51
2023/04/02 07:46:13;;;;;;;4.80;1.80;;;4.80;97.20;;;;;;5014077;28;20467;-51
2023/04/02 07:48:40;;;;;;;5.60;1.67;;;4.90;95.70;;;;;;5020148;28;20527;-51
2023/04/02 07:51:15;;;;;;;2.50;1.70;;;5.00;92.70;;;;;;5020112;28;20483;-55
2023/04/02 07:53:42;;;;;;;2.60;1.80;;;4.90;95.60;;;;;;5009501;28;20825;-55
2023/04/02 07:56:08;;;;;;;2.53;1.60;;;4.80;97.70;;;;;;5013398;28;20448;-55
2023/04/02 07:58:35;;;;;;;2.40;1.40;;;4.90;92.00;;;;;;5008549;28;20460;-52
2023/04/02 08:01:04;;;;;;;4.43;2.17;;;4.60;99.90;;;;;;5008139;28;20480;-52
2023/04/02 08:03:31;;;;;;;2.00;1.23;;;4.90;91.60;;;;;;5010458;28;20467;-51
2023/04/02 08:05:58;;;;;;;2.43;1.17;;;4.80;99.90;;;;;;5010870;28;20448;-52
2023/04/02 08:08:25;;;;;;;3.20;1.60;;;5.00;99.90;;;;;;4994875;28;20481;-53
2023/04/02 08:10:54;;;;;;;1.97;1.20;;;5.00;99.90;;;;;;5010835;28;20541;-52
2023/04/02 08:13:20;;;;;;;2.33;1.30;;;5.00;99.90;;;;;;5007619;28;20540;-52
2023/04/02 08:15:47;;;;;;;2.20;1.60;;;5.50;99.90;;;;;;5010451;28;20465;-52
2023/04/02 08:18:15;;;;;;;3.57;1.60;;;5.90;99.90;;;;;;5010930;28;20770;-53
2023/04/02 08:20:42;;;;;;;1.73;1.60;;;6.30;99.90;;;;;;5012790;28;20558;-52
2023/04/02 08:23:14;;;;;;;4.97;2.20;;;6.10;99.90;;;;;;5004981;28;20510;-51
2023/04/02 08:25:40;;;;;;;3.10;1.67;;;6.40;99.90;;;;;;5002533;28;20811;-52
2023/04/02 08:28:07;;;;;;;3.03;1.70;;;6.20;99.90;;;;;;5012668;28;20859;-52
2023/04/02 08:30:33;;;;;;;6.87;1.97;;;6.20;99.90;;;;;;5014915;28;20488;-53
2023/04/02 08:33:00;;;;;;;2.60;1.50;;;6.20;99.90;;;;;;5017046;28;20463;-53
2023/04/02 08:35:28;;;;;;;2.40;1.60;;;6.40;99.90;;;;;;5011591;28;20494;-52
2023/04/02 08:37:55;;;;;;;5.97;2.10;;;6.70;99.90;;;;;;5017800;28;20522;-53
2023/04/02 08:40:26;;;;;;;2.50;1.60;;;6.90;99.90;;;;;;5011088;28;20517;-53
2023/04/02 08:43:18;;;;;;;3.90;2.00;;;7.30;99.90;;;;;;5016575;28;20855;-52
2023/04/02 08:45:58;;;;;;;2.53;1.43;;;7.80;99.90;;;;;;5009243;28;20464;-51
2023/04/02 08:48:24;;;;;;;2.40;1.27;;;8.30;99.90;;;;;;5008298;28;20796;-52
2023/04/02 08:50:53;;;;;;;2.40;1.30;;;8.60;99.90;;;;;;5011744;28;20860;-53
2023/04/02 08:53:24;;;;;;;1.63;1.00;;;8.60;99.90;;;;;;5011400;28;20448;-51
2023/04/02 08:55:58;;;;;;;2.83;1.40;;;9.10;99.90;;;;;;5029392;28;20509;-52
2023/04/02 08:58:38;;;;;;;6.13;1.83;;;9.00;99.90;;;;;;5032175;28;20461;-51
2023/04/02 09:01:07;;;;;;;2.17;1.50;;;9.40;99.90;;;;;;5016715;28;20471;-51
2023/04/02 09:03:40;;;;;;;2.17;1.10;;;9.80;99.90;;;;;;5012089;28;20967;-51
2023/04/02 09:06:12;;;;;;;5.07;1.87;;;10.90;99.90;;;;;;5012441;28;20514;-52
2023/04/02 09:08:39;;;;;;;3.73;1.40;;;9.80;99.90;;;;;;5012039;28;20444;-51
2023/04/02 09:11:10;;;;;;;1.83;1.30;;;8.90;99.90;;;;;;5012474;28;20542;-52
2023/04/02 09:13:43;;;;;;;4.10;2.10;;;8.90;99.90;;;;;;5011371;28;20456;-52
2023/04/02 09:16:14;;;;;;;2.00;1.60;;;9.10;99.90;;;;;;5008981;28;20453;-52
2023/04/02 09:18:43;;;;;;;3.77;1.80;;;9.90;99.90;;;;;;5011577;28;20460;-52
2023/04/02 09:21:33;;;;;;;2.83;1.27;;;10.40;99.90;;;;;;5012027;28;20458;-53
2023/04/02 09:24:00;;;;;;;6.80;1.80;;;9.10;99.90;;;;;;5011312;28;20452;-52
2023/04/02 09:26:29;;;;;;;2.07;1.40;;;8.80;99.90;;;;;;5009380;28;20472;-51
2023/04/02 09:29:04;;;;;;;2.57;1.50;;;8.30;99.90;;;;;;5010083;28;21016;-52
2023/04/02 09:31:36;;;;;;;3.73;1.70;;;8.10;99.90;;;;;;5009266;28;21053;-53
2023/04/02 09:34:27;;;;;;;4.10;1.57;;;7.70;99.90;;;;;;5016974;28;20459;-53
2023/04/02 09:36:55;;;;;;;3.90;1.33;;;7.90;99.90;;;;;;5014754;28;20448;-53
2023/04/02 09:39:24;;;;;;;5.23;1.27;;;7.20;99.90;;;;;;5016041;28;20495;-53
2023/04/02 09:41:52;;;;;;;3.00;1.37;;;7.50;99.90;;;;;;5011573;28;20475;-52
2023/04/02 09:44:22;;;;;;;4.40;1.67;;;8.10;99.90;;;;;;5009914;28;20472;-52
2023/04/02 09:46:52;;;;;;;7.80;1.73;;;8.60;99.90;;;;;;5007894;28;20470;-51
2023/04/02 09:49:23;;;;;;;1.60;1.50;;;8.20;99.90;;;;;;5020625;28;20484;-52
2023/04/02 09:54:44;;;;;;;3.03;1.57;;;7.70;99.90;;;;;;5079118;28;20564;-52
2023/04/02 09:57:22;;;;;;;4.10;1.70;;;7.60;99.90;;;;;;5090861;28;20479;-51
2023/04/02 10:00:08;;;;;;;2.50;1.30;;;7.20;99.90;;;;;;5080622;28;21192;-52
2023/04/02 10:02:35;;;;;;;5.00;1.73;;;6.90;99.90;;;;;;5056726;28;20471;-53
2023/04/02 10:05:04;;;;;;;2.30;1.50;;;7.30;99.90;;;;;;5059826;28;21021;-52
2023/04/02 10:07:36;;;;;;;3.33;1.50;;;8.20;99.90;;;;;;5057129;28;20467;-52
2023/04/02 10:10:18;;;;;;;2.93;1.50;;;8.50;99.90;;;;;;5063357;28;20504;-52
2023/04/02 10:12:48;;;;;;;2.10;1.30;;;9.60;99.90;;;;;;5062298;28;20903;-52
2023/04/02 10:15:20;;;;;;;3.70;1.63;;;9.80;99.90;;;;;;5054154;28;20526;-51
2023/04/02 10:17:55;;;;;;;5.77;1.93;;;10.00;99.90;;;;;;5057925;28;20457;-52
2023/04/02 10:20:25;;;;;;;2.63;1.40;;;10.80;99.90;;;;;;5053656;28;20472;-52
2023/04/02 10:22:52;;;;;;;6.60;2.10;;;10.80;99.90;;;;;;5059491;28;20555;-50
2023/04/02 10:25:24;;;;;;;3.10;1.70;;;11.70;99.90;;;;;;5054059;28;20618;-52
2023/04/02 10:27:57;;;;;;;4.80;1.77;;;12.30;99.90;;;;;;5054167;28;21125;-52
2023/04/02 10:30:30;;;;;;;1.43;1.20;;;12.10;99.90;;;;;;5067324;28;20481;-52
2023/04/02 10:33:00;;;;;;;4.20;1.97;;;11.70;99.90;;;;;;5062087;28;20607;-53
2023/04/02 10:35:40;;;;;;;3.63;1.70;;;9.90;99.90;;;;;;5056616;28;20460;-52
2023/04/02 10:38:23;;;;;;;4.37;1.90;;;9.00;99.90;;;;;;5043996;28;20468;-51
2023/04/02 10:40:58;;;;;;;3.93;2.30;;;9.60;99.90;;;;;;5058165;28;20477;-51
2023/04/02 10:43:48;;;;;;;1.87;1.43;;;10.60;99.90;;;;;;5059858;28;20534;-52
2023/04/02 10:46:21;;;;;;;2.50;1.73;;;10.50;99.90;;;;;;5046230;28;20503;-51
2023/04/02 10:48:57;;;;;;;2.30;1.03;;;10.60;99.90;;;;;;5064297;28;20502;-51
2023/04/02 10:51:33;;;;;;;6.17;2.87;;;11.60;99.90;;;;;;5061009;28;20836;-52
2023/04/02 10:54:06;;;;;;;2.80;2.00;;;12.10;99.90;;;;;;5055308;28;20491;-52
2023/04/02 10:56:34;;;;;;;7.03;2.00;;;11.90;99.90;;;;;;5064460;28;20518;-53
2023/04/02 10:59:05;;;;;;;2.10;1.30;;;11.60;99.90;;;;;;5068921;28;20448;-52
2023/04/02 11:01:34;;;;;;;7.67;2.17;;;9.70;99.90;;;;;;5052895;28;20492;-52
2023/04/02 11:04:05;;;;;;;5.80;1.60;;;9.80;99.90;;;;;;5064511;28;20455;-51
2023/04/02 11:06:38;;;;;;;3.70;1.70;;;9.60;99.90;;;;;;5041357;28;20842;-51
2023/04/02 11:09:07;;;;;;;3.50;1.80;;;10.50;99.90;;;;;;5048602;28;20990;-52
2023/04/02 11:11:39;;;;;;;1.37;1.00;;;11.20;99.90;;;;;;5044318;28;20515;-51
2023/04/02 11:14:14;;;;;;;5.20;2.00;;;11.10;99.90;;;;;;5042317;28;20543;-51
2023/04/02 11:16:41;;;;;;;8.00;2.00;;;11.00;99.90;;;;;;5044872;28;20502;-52
2023/04/02 11:19:24;;;;;;;12.37;1.80;;;10.40;99.90;;;;;;5043018;28;20509;-51
2023/04/02 11:21:54;;;;;;;9.40;2.17;;;9.80;99.90;;;;;;5033601;28;20541;-51
2023/04/02 11:24:35;;;;;;;5.27;1.60;;;9.40;99.90;;;;;;5041857;28;22139;-52
2023/04/02 11:27:15;;;;;;;6.33;1.53;;;9.10;99.90;;;;;;5042251;28;20460;-52
2023/04/02 11:29:44;;;;;;;2.77;1.40;;;8.90;99.90;;;;;;5046848;28;20440;-52
2023/04/02 11:32:26;;;;;;;5.23;2.27;;;8.50;99.90;;;;;;5049350;28;20480;-51
2023/04/02 11:35:03;;;;;;;5.83;1.70;;;9.30;99.90;;;;;;5048845;28;20564;-51
2023/04/02 11:37:33;;;;;;;4.73;2.20;;;9.70;99.90;;;;;;5049717;28;20473;-51
2023/04/02 11:40:00;;;;;;;5.43;1.77;;;9.40;99.90;;;;;;5045839;28;20485;-51
2023/04/02 11:42:31;;;;;;;3.47;1.83;;;9.20;99.90;;;;;;5048533;28;20890;-51
2023/04/02 11:45:01;;;;;;;7.10;1.53;;;9.30;99.90;;;;;;5048010;28;20495;-51
2023/04/02 11:47:29;;;;;;;5.63;1.80;;;9.20;99.90;;;;;;5048647;28;20886;-52
2023/04/02 11:50:01;;;;;;;2.90;2.10;;;8.90;99.90;;;;;;5046305;28;20469;-51
2023/04/02 11:52:32;;;;;;;4.10;1.63;;;8.60;99.90;;;;;;5042671;28;20470;-52
2023/04/02 11:55:26;;;;;;;2.70;1.43;;;8.80;99.90;;;;;;5050795;28;20484;-51
2023/04/02 11:58:38;;;;;;;7.10;1.90;;;9.10;99.90;;;;;;5033253;28;20909;-51
2023/04/02 12:01:43;;;;;;;3.10;1.77;;;9.30;99.90;;;;;;5042782;28;20545;-51
2023/04/02 12:04:38;;;;;;;1.90;1.43;;;9.20;99.90;;;;;;5037929;28;20450;-51
2023/04/02 12:07:25;;;;;;;4.27;1.53;;;9.30;99.90;;;;;;5036820;28;20459;-51
2023/04/02 12:09:54;;;;;;;1.57;1.47;;;9.20;99.90;;;;;;5047296;28;20465;-51
2023/04/02 12:12:27;;;;;;;3.13;1.80;;;9.20;99.90;;;;;;5047369;28;21065;-51
2023/04/02 12:14:56;;;;;;;3.37;1.70;;;9.30;99.90;;;;;;5052745;28;20473;-51
2023/04/02 12:17:28;;;;;;;1.60;1.27;;;9.20;99.90;;;;;;5045645;28;20530;-51
2023/04/02 12:19:57;;;;;;;2.37;1.30;;;9.20;99.90;;;;;;5047457;28;20461;-51
2023/04/02 12:22:27;;;;;;;3.23;1.70;;;9.20;99.90;;;;;;5035372;28;20467;-51
2023/04/02 12:24:56;;;;;;;4.83;1.70;;;9.10;99.90;;;;;;5049501;28;20456;-51
2023/04/02 12:27:27;;;;;;;2.70;1.33;;;9.30;99.90;;;;;;5051893;28;20468;-51
2023/04/02 12:29:56;;;;;;;3.03;1.30;;;9.50;99.90;;;;;;5050147;28;20483;-51
2023/04/02 12:32:28;;;;;;;2.00;1.40;;;10.10;99.90;;;;;;5042867;28;20882;-51
2023/04/02 12:34:56;;;;;;;2.13;1.13;;;10.20;99.90;;;;;;5045296;28;20488;-50
2023/04/02 12:37:25;;;;;;;3.60;1.37;;;10.50;99.90;;;;;;5035314;28;20461;-51
2023/04/02 12:39:54;;;;;;;2.40;1.60;;;10.60;99.90;;;;;;5040163;28;20521;-51
2023/04/02 12:42:28;;;;;;;2.87;1.60;;;10.20;99.90;;;;;;5047713;28;20460;-51
2023/04/02 12:44:56;;;;;;;7.50;1.70;;;10.20;99.90;;;;;;5041911;28;20460;-51
2023/04/02 12:47:23;;;;;;;2.43;1.23;;;9.90;99.90;;;;;;5050183;28;20993;-51
2023/04/02 12:49:51;;;;;;;3.40;1.57;;;10.10;99.90;;;;;;5038236;28;20512;-51
2023/04/02 12:52:21;;;;;;;2.50;1.30;;;10.30;99.90;;;;;;5047309;28;20464;-50
2023/04/02 12:54:50;;;;;;;4.30;1.43;;;10.10;99.90;;;;;;5049716;28;20485;-50
2023/04/02 12:57:22;;;;;;;2.30;1.57;;;10.00;99.90;;;;;;5045966;28;20517;-52
2023/04/02 12:59:49;;;;;;;3.23;1.50;;;9.80;99.90;;;;;;5048507;28;20469;-52
2023/04/02 13:02:20;;;;;;;4.07;1.40;;;9.60;99.90;;;;;;5036037;28;20484;-50
2023/04/02 13:04:48;;;;;;;3.30;1.40;;;9.60;99.90;;;;;;5040615;28;20465;-52
2023/04/02 13:07:17;;;;;;;3.13;1.30;;;9.90;99.90;;;;;;5045265;28;20987;-51
2023/04/02 13:09:46;;;;;;;4.47;1.30;;;11.10;99.90;;;;;;5039601;28;21037;-51
2023/04/02 13:12:25;;;;;;;1.30;1.00;;;10.70;99.90;;;;;;5043802;23;20501;-49
2023/04/02 13:14:53;;;;;;;2.43;1.70;;;10.30;99.90;;;;;;5025640;28;20469;-49
2023/04/02 13:17:43;;;;;;;3.33;1.80;;;9.80;99.90;;;;;;5031579;28;20476;-49
2023/04/02 13:20:32;;;;;;;3.70;1.50;;;10.10;99.90;;;;;;5035749;28;20458;-49
2023/04/02 13:23:00;;;;;;;2.33;1.40;;;9.80;99.90;;;;;;5021034;28;20533;-49
2023/04/02 13:25:30;;;;;;;3.70;1.40;;;9.50;99.90;;;;;;5030012;28;20458;-49